sensor_id;sensor_type;location;lat;lon;timestamp;pressure;altitude;pressure_sealevel;temperature;humidity
15634;BME280;14654;48.898;8.308;2023-05-11T00:01:43;100115.41;;;12.05;100.00
15634;BME280;14654;48.898;8.308;2023-05-11T00:04:09;100114.53;;;12.08;100.00
15634;BME280;14654;48.898;8.308;2023-05-11T00:06:34;100109.25;;;12.11;100.00
15634;BME280;14654;48.898;8.308;2023-05-11T00:08:59;100114.38;;;12.14;100.00
15634;BME280;14654;48.898;8.308;2023-05-11T00:11:25;100104.84;;;12.17;100.00
15634;BME280;14654;48.898;8.308;2023-05-11T00:13:50;100116.00;;;12.21;100.00
15634;BME280;14654;48.898;8.308;2023-05-11T00:16:15;100118.53;;;12.24;100.00
15634;BME280;14654;48.898;8.308;2023-05-11T00:18:41;100115.88;;;12.29;100.00
15634;BME280;14654;48.898;8.308;2023-05-11T00:21:06;100113.22;;;12.30;100.00
15634;BME280;14654;48.898;8.308;2023-05-11T00:23:32;100109.72;;;12.33;100.00
15634;BME280;14654;48.898;8.308;2023-05-11T00:25:57;100112.28;;;12.34;100.00
15634;BME280;14654;48.898;8.308;2023-05-11T00:28:22;100105.28;;;12.38;100.00
15634;BME280;14654;48.898;8.308;2023-05-11T00:30:47;100112.16;;;12.41;100.00
15634;BME280;14654;48.898;8.308;2023-05-11T00:33:13;100113.84;;;12.43;100.00
15634;BME280;14654;48.898;8.308;2023-05-11T00:35:38;100099.94;;;12.46;100.00
15634;BME280;14654;48.898;8.308;2023-05-11T00:38:04;100103.41;;;12.46;100.00
15634;BME280;14654;48.898;8.308;2023-05-11T00:40:33;100103.38;;;12.48;100.00
15634;BME280;14654;48.898;8.308;2023-05-11T00:42:58;100097.34;;;12.47;100.00
15634;BME280;14654;48.898;8.308;2023-05-11T00:45:23;100096.47;;;12.47;100.00
15634;BME280;14654;48.898;8.308;2023-05-11T00:47:50;100103.38;;;12.48;100.00
15634;BME280;14654;48.898;8.308;2023-05-11T00:50:16;100104.22;;;12.48;100.00
15634;BME280;14654;48.898;8.308;2023-05-11T00:52:42;100099.91;;;12.49;100.00
15634;BME280;14654;48.898;8.308;2023-05-11T00:55:09;100102.44;;;12.50;100.00
15634;BME280;14654;48.898;8.308;2023-05-11T00:57:37;100096.41;;;12.50;100.00
15634;BME280;14654;48.898;8.308;2023-05-11T01:00:03;100101.56;;;12.52;100.00
15634;BME280;14654;48.898;8.308;2023-05-11T01:02:28;100101.56;;;12.52;100.00
15634;BME280;14654;48.898;8.308;2023-05-11T01:04:54;100097.25;;;12.52;100.00
15634;BME280;14654;48.898;8.308;2023-05-11T01:07:31;100099.00;;;12.50;100.00
15634;BME280;14654;48.898;8.308;2023-05-11T01:10:07;100096.44;;;12.48;100.00
15634;BME280;14654;48.898;8.308;2023-05-11T01:13:01;100102.53;;;12.47;100.00
15634;BME280;14654;48.898;8.308;2023-05-11T01:15:34;100094.81;;;12.44;100.00
15634;BME280;14654;48.898;8.308;2023-05-11T01:21:01;100093.25;;;12.35;100.00
15634;BME280;14654;48.898;8.308;2023-05-11T01:31:39;100094.47;;;12.16;100.00
15634;BME280;14654;48.898;8.308;2023-05-11T01:34:09;100101.41;;;12.14;100.00
15634;BME280;14654;48.898;8.308;2023-05-11T01:36:47;100099.75;;;12.11;100.00
15634;BME280;14654;48.898;8.308;2023-05-11T01:39:15;100093.72;;;12.09;100.00
15634;BME280;14654;48.898;8.308;2023-05-11T01:41:44;100092.91;;;12.07;100.00
15634;BME280;14654;48.898;8.308;2023-05-11T01:44:17;100095.53;;;12.06;100.00
15634;BME280;14654;48.898;8.308;2023-05-11T01:46:45;100093.00;;;12.02;100.00
15634;BME280;14654;48.898;8.308;2023-05-11T01:49:13;100099.06;;;12.01;100.00
15634;BME280;14654;48.898;8.308;2023-05-11T01:51:40;100096.50;;;11.98;100.00
15634;BME280;14654;48.898;8.308;2023-05-11T01:54:07;100107.72;;;11.97;100.00
15634;BME280;14654;48.898;8.308;2023-05-11T01:56:35;100107.72;;;11.97;100.00
15634;BME280;14654;48.898;8.308;2023-05-11T01:59:02;100104.31;;;11.95;100.00
15634;BME280;14654;48.898;8.308;2023-05-11T02:01:28;100104.38;;;11.92;100.00
15634;BME280;14654;48.898;8.308;2023-05-11T02:03:55;100101.78;;;11.90;100.00
15634;BME280;14654;48.898;8.308;2023-05-11T02:06:22;100099.19;;;11.90;100.00
15634;BME280;14654;48.898;8.308;2023-05-11T02:08:49;100106.19;;;11.87;100.00
15634;BME280;14654;48.898;8.308;2023-05-11T02:11:16;100099.31;;;11.84;100.00
15634;BME280;14654;48.898;8.308;2023-05-11T02:13:44;100102.81;;;11.83;100.00
15634;BME280;14654;48.898;8.308;2023-05-11T02:16:10;100108.84;;;11.84;100.00
15634;BME280;14654;48.898;8.308;2023-05-11T02:18:38;100110.59;;;11.83;100.00
15634;BME280;14654;48.898;8.308;2023-05-11T02:21:07;100109.72;;;11.83;100.00
15634;BME280;14654;48.898;8.308;2023-05-11T02:23:33;100108.00;;;11.82;100.00
15634;BME280;14654;48.898;8.308;2023-05-11T02:25:59;100108.03;;;11.80;100.00
15634;BME280;14654;48.898;8.308;2023-05-11T02:28:25;100108.03;;;11.80;100.00
15634;BME280;14654;48.898;8.308;2023-05-11T02:30:53;100109.78;;;11.80;100.00
15634;BME280;14654;48.898;8.308;2023-05-11T02:33:25;100108.09;;;11.77;100.00
15634;BME280;14654;48.898;8.308;2023-05-11T02:35:54;100112.38;;;11.78;100.00
15634;BME280;14654;48.898;8.308;2023-05-11T02:38:24;100117.53;;;11.81;100.00
15634;BME280;14654;48.898;8.308;2023-05-11T02:40:54;100109.75;;;11.81;100.00
15634;BME280;14654;48.898;8.308;2023-05-11T02:43:24;100103.72;;;11.79;100.00
15634;BME280;14654;48.898;8.308;2023-05-11T02:45:51;100107.19;;;11.80;100.00
15634;BME280;14654;48.898;8.308;2023-05-11T02:48:27;100103.78;;;11.78;100.00
15634;BME280;14654;48.898;8.308;2023-05-11T02:50:54;100103.78;;;11.78;100.00
15634;BME280;14654;48.898;8.308;2023-05-11T02:53:24;100112.38;;;11.78;100.00
15634;BME280;14654;48.898;8.308;2023-05-11T02:55:53;100108.91;;;11.79;100.00
15634;BME280;14654;48.898;8.308;2023-05-11T02:58:19;100107.13;;;11.83;100.00
15634;BME280;14654;48.898;8.308;2023-05-11T03:00:44;100108.00;;;11.83;100.00
15634;BME280;14654;48.898;8.308;2023-05-11T03:03:10;100107.09;;;11.84;100.00
15634;BME280;14654;48.898;8.308;2023-05-11T03:05:36;100106.22;;;11.85;100.00
15634;BME280;14654;48.898;8.308;2023-05-11T03:08:02;100105.41;;;11.83;100.00
15634;BME280;14654;48.898;8.308;2023-05-11T03:10:27;100104.53;;;11.83;100.00
15634;BME280;14654;48.898;8.308;2023-05-11T03:12:54;100104.56;;;11.81;100.00
15634;BME280;14654;48.898;8.308;2023-05-11T03:15:20;100105.41;;;11.82;100.00
15634;BME280;14654;48.898;8.308;2023-05-11T03:17:46;100103.69;;;11.81;100.00
15634;BME280;14654;48.898;8.308;2023-05-11T03:20:12;100102.84;;;11.80;100.00
15634;BME280;14654;48.898;8.308;2023-05-11T03:22:40;100108.88;;;11.81;100.00
15634;BME280;14654;48.898;8.308;2023-05-11T03:25:06;100103.72;;;11.79;100.00
15634;BME280;14654;48.898;8.308;2023-05-11T03:27:32;100099.41;;;11.80;100.00
15634;BME280;14654;48.898;8.308;2023-05-11T03:29:59;100099.41;;;11.80;100.00
15634;BME280;14654;48.898;8.308;2023-05-11T03:32:26;100102.00;;;11.80;100.00
15634;BME280;14654;48.898;8.308;2023-05-11T03:34:52;100100.28;;;11.79;100.00
15634;BME280;14654;48.898;8.308;2023-05-11T03:37:18;100104.56;;;11.81;100.00
15634;BME280;14654;48.898;8.308;2023-05-11T03:39:46;100097.66;;;11.80;100.00
15634;BME280;14654;48.898;8.308;2023-05-11T03:42:13;100101.13;;;11.79;100.00
15634;BME280;14654;48.898;8.308;2023-05-11T03:44:41;100092.50;;;11.79;100.00
15634;BME280;14654;48.898;8.308;2023-05-11T03:47:08;100098.59;;;11.78;100.00
15634;BME280;14654;48.898;8.308;2023-05-11T03:49:35;100094.25;;;11.78;100.00
15634;BME280;14654;48.898;8.308;2023-05-11T03:52:01;100107.19;;;11.78;100.00
15634;BME280;14654;48.898;8.308;2023-05-11T03:54:28;100101.13;;;11.79;100.00
15634;BME280;14654;48.898;8.308;2023-05-11T03:56:54;100099.38;;;11.81;100.00
15634;BME280;14654;48.898;8.308;2023-05-11T03:59:19;100094.16;;;11.83;100.00
15634;BME280;14654;48.898;8.308;2023-05-11T04:01:45;100090.72;;;11.82;100.00
15634;BME280;14654;48.898;8.308;2023-05-11T04:04:10;100098.47;;;11.84;100.00
15634;BME280;14654;48.898;8.308;2023-05-11T04:06:36;100098.47;;;11.84;100.00
15634;BME280;14654;48.898;8.308;2023-05-11T04:09:01;100097.63;;;11.82;100.00
15634;BME280;14654;48.898;8.308;2023-05-11T04:11:26;100095.03;;;11.82;100.00
15634;BME280;14654;48.898;8.308;2023-05-11T04:13:54;100100.22;;;11.83;100.00
15634;BME280;14654;48.898;8.308;2023-05-11T04:16:19;100094.16;;;11.83;100.00
15634;BME280;14654;48.898;8.308;2023-05-11T04:18:44;100101.06;;;11.84;100.00
15634;BME280;14654;48.898;8.308;2023-05-11T04:21:10;100101.88;;;11.86;100.00
15634;BME280;14654;48.898;8.308;2023-05-11T04:23:35;100102.72;;;11.88;100.00
15634;BME280;14654;48.898;8.308;2023-05-11T04:26:01;100102.72;;;11.88;100.00
15634;BME280;14654;48.898;8.308;2023-05-11T04:28:26;100108.75;;;11.88;100.00
15634;BME280;14654;48.898;8.308;2023-05-11T04:30:56;100108.75;;;11.90;100.00
15634;BME280;14654;48.898;8.308;2023-05-11T04:33:22;100105.25;;;11.91;100.00
15634;BME280;14654;48.898;8.308;2023-05-11T04:35:52;100108.69;;;11.92;100.00
15634;BME280;14654;48.898;8.308;2023-05-11T04:38:18;100109.56;;;11.92;100.00
15634;BME280;14654;48.898;8.308;2023-05-11T04:40:43;100107.81;;;11.94;100.00
15634;BME280;14654;48.898;8.308;2023-05-11T04:43:09;100112.97;;;11.96;100.00
15634;BME280;14654;48.898;8.308;2023-05-11T04:45:34;100114.66;;;11.97;100.00
15634;BME280;14654;48.898;8.308;2023-05-11T04:47:59;100112.06;;;11.98;100.00
15634;BME280;14654;48.898;8.308;2023-05-11T04:50:25;100111.19;;;11.99;100.00
15634;BME280;14654;48.898;8.308;2023-05-11T04:52:50;100100.81;;;11.99;100.00
15634;BME280;14654;48.898;8.308;2023-05-11T04:55:15;100115.50;;;12.00;100.00
15634;BME280;14654;48.898;8.308;2023-05-11T04:57:41;100113.72;;;12.02;100.00
15634;BME280;14654;48.898;8.308;2023-05-11T05:00:07;100104.19;;;12.03;100.00
15634;BME280;14654;48.898;8.308;2023-05-11T05:02:32;100112.84;;;12.03;100.00
15634;BME280;14654;48.898;8.308;2023-05-11T05:04:58;100116.28;;;12.06;100.00
15634;BME280;14654;48.898;8.308;2023-05-11T05:07:24;100109.34;;;12.06;100.00
15634;BME280;14654;48.898;8.308;2023-05-11T05:09:50;100118.81;;;12.09;100.00
15634;BME280;14654;48.898;8.308;2023-05-11T05:12:15;100118.81;;;12.09;100.00
15634;BME280;14654;48.898;8.308;2023-05-11T05:14:40;100115.34;;;12.08;100.00
15634;BME280;14654;48.898;8.308;2023-05-11T05:17:06;100119.66;;;12.09;100.00
15634;BME280;14654;48.898;8.308;2023-05-11T05:19:31;100125.72;;;12.08;100.00
15634;BME280;14654;48.898;8.308;2023-05-11T05:21:57;100123.97;;;12.10;100.00
15634;BME280;14654;48.898;8.308;2023-05-11T05:24:22;100126.53;;;12.13;100.00
15634;BME280;14654;48.898;8.308;2023-05-11T05:26:47;100121.25;;;12.18;100.00
15634;BME280;14654;48.898;8.308;2023-05-11T05:29:13;100129.84;;;12.20;100.00
15634;BME280;14654;48.898;8.308;2023-05-11T05:31:38;100125.50;;;12.20;100.00
15634;BME280;14654;48.898;8.308;2023-05-11T05:34:03;100126.34;;;12.23;100.00
15634;BME280;14654;48.898;8.308;2023-05-11T05:36:28;100125.47;;;12.24;100.00
15634;BME280;14654;48.898;8.308;2023-05-11T05:38:54;100128.88;;;12.26;100.00
15634;BME280;14654;48.898;8.308;2023-05-11T05:41:19;100127.94;;;12.30;100.00
15634;BME280;14654;48.898;8.308;2023-05-11T05:43:46;100133.88;;;12.35;100.00
15634;BME280;14654;48.898;8.308;2023-05-11T05:46:12;100135.56;;;12.39;100.00
15634;BME280;14654;48.898;8.308;2023-05-11T05:48:38;100141.53;;;12.44;100.00
15634;BME280;14654;48.898;8.308;2023-05-11T05:51:03;100131.00;;;12.52;100.00
15634;BME280;14654;48.898;8.308;2023-05-11T05:53:28;100128.25;;;12.60;100.00
15634;BME280;14654;48.898;8.308;2023-05-11T05:55:53;100135.84;;;12.69;100.00
15634;BME280;14654;48.898;8.308;2023-05-11T05:58:19;100130.53;;;12.74;100.00
15634;BME280;14654;48.898;8.308;2023-05-11T06:00:44;100125.25;;;12.80;100.00
15634;BME280;14654;48.898;8.308;2023-05-11T06:03:10;100131.16;;;12.87;100.00
15634;BME280;14654;48.898;8.308;2023-05-11T06:05:35;100128.44;;;12.93;100.00
15634;BME280;14654;48.898;8.308;2023-05-11T06:08:00;100131.75;;;13.00;100.00
15634;BME280;14654;48.898;8.308;2023-05-11T06:10:25;100135.13;;;13.03;100.00
15634;BME280;14654;48.898;8.308;2023-05-11T06:12:52;100131.50;;;13.10;100.00
15634;BME280;14654;48.898;8.308;2023-05-11T06:15:17;100130.44;;;13.21;100.00
15634;BME280;14654;48.898;8.308;2023-05-11T06:17:42;100135.47;;;13.29;100.00
15634;BME280;14654;48.898;8.308;2023-05-11T06:20:08;100134.47;;;13.34;100.00
15634;BME280;14654;48.898;8.308;2023-05-11T06:22:34;100129.97;;;13.43;100.00
15634;BME280;14654;48.898;8.308;2023-05-11T06:24:59;100134.97;;;13.52;100.00
15634;BME280;14654;48.898;8.308;2023-05-11T06:27:25;100139.97;;;13.60;100.00
15634;BME280;14654;48.898;8.308;2023-05-11T06:29:50;100129.34;;;13.69;100.00
15634;BME280;14654;48.898;8.308;2023-05-11T06:32:15;100128.34;;;13.75;100.00
15634;BME280;14654;48.898;8.308;2023-05-11T06:34:41;100125.59;;;13.81;100.00
15634;BME280;14654;48.898;8.308;2023-05-11T06:37:06;100128.03;;;13.87;100.00
15634;BME280;14654;48.898;8.308;2023-05-11T06:39:35;100131.25;;;13.97;100.00
15634;BME280;14654;48.898;8.308;2023-05-11T06:42:02;100138.03;;;14.04;100.00
15634;BME280;14654;48.898;8.308;2023-05-11T06:44:27;100136.03;;;14.14;100.00
15634;BME280;14654;48.898;8.308;2023-05-11T06:46:53;100127.09;;;14.23;100.00
15634;BME280;14654;48.898;8.308;2023-05-11T06:49:18;100127.75;;;14.31;100.00
15634;BME280;14654;48.898;8.308;2023-05-11T06:51:43;100124.00;;;14.41;100.00
15634;BME280;14654;48.898;8.308;2023-05-11T06:54:09;100124.69;;;14.48;100.00
15634;BME280;14654;48.898;8.308;2023-05-11T06:56:34;100121.13;;;14.52;100.00
15634;BME280;14654;48.898;8.308;2023-05-11T06:58:59;100126.31;;;14.52;100.00
15634;BME280;14654;48.898;8.308;2023-05-11T07:01:24;100127.97;;;14.55;100.00
15634;BME280;14654;48.898;8.308;2023-05-11T07:03:53;100124.56;;;14.53;100.00
15634;BME280;14654;48.898;8.308;2023-05-11T07:06:18;100133.38;;;14.48;100.00
15634;BME280;14654;48.898;8.308;2023-05-11T07:08:44;100134.41;;;14.43;100.00
15634;BME280;14654;48.898;8.308;2023-05-11T07:11:09;100136.31;;;14.36;100.00
15634;BME280;14654;48.898;8.308;2023-05-11T07:13:37;100134.50;;;14.38;100.00
15634;BME280;14654;48.898;8.308;2023-05-11T07:16:02;100138.66;;;14.45;100.00
15634;BME280;14654;48.898;8.308;2023-05-11T07:18:27;100135.91;;;14.50;100.00
15634;BME280;14654;48.898;8.308;2023-05-11T07:20:53;100134.22;;;14.49;100.00
15634;BME280;14654;48.898;8.308;2023-05-11T07:23:18;100138.72;;;14.44;100.00
15634;BME280;14654;48.898;8.308;2023-05-11T07:25:44;100142.16;;;14.44;100.00
15634;BME280;14654;48.898;8.308;2023-05-11T07:28:10;100139.41;;;14.49;100.00
15634;BME280;14654;48.898;8.308;2023-05-11T07:30:35;100138.28;;;14.59;100.00
15634;BME280;14654;48.898;8.308;2023-05-11T07:33:00;100143.25;;;14.67;100.00
15634;BME280;14654;48.898;8.308;2023-05-11T07:35:27;100143.78;;;14.80;100.00
15634;BME280;14654;48.898;8.308;2023-05-11T07:37:52;100142.53;;;14.93;100.00
15634;BME280;14654;48.898;8.308;2023-05-11T07:40:17;100140.53;;;15.03;100.00
15634;BME280;14654;48.898;8.308;2023-05-11T07:42:43;100146.25;;;15.15;99.66
15634;BME280;14654;48.898;8.308;2023-05-11T07:45:08;100146.97;;;15.20;99.33
15634;BME280;14654;48.898;8.308;2023-05-11T07:47:34;100145.13;;;15.23;99.24
15634;BME280;14654;48.898;8.308;2023-05-11T07:49:59;100146.81;;;15.26;99.18
15634;BME280;14654;48.898;8.308;2023-05-11T07:52:25;100136.38;;;15.26;99.06
15634;BME280;14654;48.898;8.308;2023-05-11T07:54:50;100142.44;;;15.27;99.18
15634;BME280;14654;48.898;8.308;2023-05-11T07:57:16;100134.59;;;15.27;98.99
15634;BME280;14654;48.898;8.308;2023-05-11T07:59:41;100134.69;;;15.23;99.11
15634;BME280;14654;48.898;8.308;2023-05-11T08:02:07;100148.59;;;15.24;98.68
15634;BME280;14654;48.898;8.308;2023-05-11T08:04:33;100148.44;;;15.29;98.52
15634;BME280;14654;48.898;8.308;2023-05-11T08:06:59;100148.16;;;15.38;98.27
15634;BME280;14654;48.898;8.308;2023-05-11T08:09:24;100147.75;;;15.50;98.10
15634;BME280;14654;48.898;8.308;2023-05-11T08:11:50;100150.94;;;15.60;97.97
15634;BME280;14654;48.898;8.308;2023-05-11T08:14:15;100149.88;;;15.66;96.63
15634;BME280;14654;48.898;8.308;2023-05-11T08:16:41;100156.94;;;15.64;96.65
15634;BME280;14654;48.898;8.308;2023-05-11T08:19:07;100156.94;;;15.64;96.50
15634;BME280;14654;48.898;8.308;2023-05-11T08:21:32;100145.72;;;15.60;96.48
15634;BME280;14654;48.898;8.308;2023-05-11T08:23:58;100148.41;;;15.59;96.14
15634;BME280;14654;48.898;8.308;2023-05-11T08:26:23;100145.78;;;15.59;95.90
15634;BME280;14654;48.898;8.308;2023-05-11T08:28:48;100145.72;;;15.60;95.62
15634;BME280;14654;48.898;8.308;2023-05-11T08:31:16;100150.84;;;15.63;95.68
15634;BME280;14654;48.898;8.308;2023-05-11T08:33:42;100154.25;;;15.65;95.49
15634;BME280;14654;48.898;8.308;2023-05-11T08:36:08;100147.19;;;15.69;95.66
15634;BME280;14654;48.898;8.308;2023-05-11T08:38:34;100147.91;;;15.74;95.45
15634;BME280;14654;48.898;8.308;2023-05-11T08:41:00;100162.66;;;15.75;95.19
15634;BME280;14654;48.898;8.308;2023-05-11T08:43:26;100152.16;;;15.77;95.26
15634;BME280;14654;48.898;8.308;2023-05-11T08:45:56;100151.25;;;15.78;95.29
15634;BME280;14654;48.898;8.308;2023-05-11T08:48:24;100154.72;;;15.78;95.08
15634;BME280;14654;48.898;8.308;2023-05-11T08:50:49;100146.75;;;15.83;95.37
15634;BME280;14654;48.898;8.308;2023-05-11T08:53:15;100141.13;;;15.95;94.49
15634;BME280;14654;48.898;8.308;2023-05-11T08:55:41;100145.91;;;16.09;94.71
15634;BME280;14654;48.898;8.308;2023-05-11T08:58:07;100150.47;;;16.28;94.02
15634;BME280;14654;48.898;8.308;2023-05-11T09:00:33;100145.50;;;16.45;93.36
15634;BME280;14654;48.898;8.308;2023-05-11T09:02:59;100146.66;;;16.62;92.85
15634;BME280;14654;48.898;8.308;2023-05-11T09:05:25;100142.69;;;16.75;92.67
15634;BME280;14654;48.898;8.308;2023-05-11T09:07:53;100144.06;;;16.86;91.83
15634;BME280;14654;48.898;8.308;2023-05-11T09:10:19;100141.28;;;16.90;91.12
15634;BME280;14654;48.898;8.308;2023-05-11T09:12:45;100148.06;;;16.96;90.79
15634;BME280;14654;48.898;8.308;2023-05-11T09:15:10;100141.84;;;16.99;90.54
15634;BME280;14654;48.898;8.308;2023-05-11T09:17:36;100146.34;;;16.95;89.67
15634;BME280;14654;48.898;8.308;2023-05-11T09:20:05;100143.88;;;16.90;90.39
15634;BME280;14654;48.898;8.308;2023-05-11T09:22:46;100140.69;;;16.82;89.59
15634;BME280;14654;48.898;8.308;2023-05-11T09:25:13;100142.78;;;16.72;90.23
15634;BME280;14654;48.898;8.308;2023-05-11T09:27:42;100139.28;;;16.73;90.03
15634;BME280;14654;48.898;8.308;2023-05-11T09:30:13;100141.84;;;16.75;89.94
15634;BME280;14654;48.898;8.308;2023-05-11T09:35:28;100134.28;;;16.91;89.74
15634;BME280;14654;48.898;8.308;2023-05-11T09:38:08;100136.59;;;17.00;89.32
15634;BME280;14654;48.898;8.308;2023-05-11T09:40:40;100131.19;;;17.05;89.09
15634;BME280;14654;48.898;8.308;2023-05-11T09:45:44;100138.72;;;17.13;88.77
15634;BME280;14654;48.898;8.308;2023-05-11T09:50:45;100133.41;;;17.14;89.03
15634;BME280;14654;48.898;8.308;2023-05-11T09:53:11;100134.09;;;17.19;88.87
15634;BME280;14654;48.898;8.308;2023-05-11T09:55:37;100133.84;;;17.26;88.55
15634;BME280;14654;48.898;8.308;2023-05-11T09:58:02;100135.31;;;17.33;88.28
15634;BME280;14654;48.898;8.308;2023-05-11T10:00:29;100135.75;;;17.44;88.20
15634;BME280;14654;48.898;8.308;2023-05-11T10:03:06;100127.47;;;17.55;87.82
15634;BME280;14654;48.898;8.308;2023-05-11T10:05:33;100139.13;;;17.68;87.72
15634;BME280;14654;48.898;8.308;2023-05-11T10:08:00;100134.84;;;17.88;87.28
15634;BME280;14654;48.898;8.308;2023-05-11T10:10:27;100132.41;;;18.06;86.64
15634;BME280;14654;48.898;8.308;2023-05-11T10:12:55;100129.84;;;18.25;85.42
15634;BME280;14654;48.898;8.308;2023-05-11T10:15:22;100117.69;;;18.43;84.97
15634;BME280;14654;48.898;8.308;2023-05-11T10:17:57;100129.19;;;18.59;83.91
15634;BME280;14654;48.898;8.308;2023-05-11T10:20:24;100119.84;;;18.73;83.18
15634;BME280;14654;48.898;8.308;2023-05-11T10:22:51;100121.91;;;18.85;82.78
15634;BME280;14654;48.898;8.308;2023-05-11T10:25:19;100116.88;;;19.00;82.56
15634;BME280;14654;48.898;8.308;2023-05-11T10:27:45;100116.38;;;19.11;82.12
15634;BME280;14654;48.898;8.308;2023-05-11T10:30:11;100105.63;;;19.17;81.77
15634;BME280;14654;48.898;8.308;2023-05-11T10:32:37;100114.31;;;19.17;81.49
15634;BME280;14654;48.898;8.308;2023-05-11T10:35:04;100110.56;;;19.23;81.19
15634;BME280;14654;48.898;8.308;2023-05-11T10:37:31;100119.06;;;19.28;81.09
15634;BME280;14654;48.898;8.308;2023-05-11T10:39:56;100110.69;;;19.39;80.13
15634;BME280;14654;48.898;8.308;2023-05-11T10:45:24;100111.53;;;19.57;79.77
15634;BME280;14654;48.898;8.308;2023-05-11T10:48:10;100111.94;;;19.67;79.20
15634;BME280;14654;48.898;8.308;2023-05-11T11:02:01;100104.91;;;19.85;77.31
15634;BME280;14654;48.898;8.308;2023-05-11T11:07:12;100104.56;;;19.93;77.39
15634;BME280;14654;48.898;8.308;2023-05-11T11:09:56;100099.19;;;20.12;76.95
15634;BME280;14654;48.898;8.308;2023-05-11T11:12:23;100097.66;;;20.25;76.49
15634;BME280;14654;48.898;8.308;2023-05-11T11:14:55;100103.25;;;20.35;76.47
15634;BME280;14654;48.898;8.308;2023-05-11T11:17:22;100096.13;;;20.37;76.05
15634;BME280;14654;48.898;8.308;2023-05-11T11:19:49;100093.19;;;20.44;76.13
15634;BME280;14654;48.898;8.308;2023-05-11T11:24:58;100097.88;;;20.54;75.14
15634;BME280;14654;48.898;8.308;2023-05-11T11:30:21;100081.84;;;20.59;75.19
15634;BME280;14654;48.898;8.308;2023-05-11T11:32:48;100078.13;;;20.63;74.80
15634;BME280;14654;48.898;8.308;2023-05-11T11:38:05;100080.56;;;20.66;75.20
15634;BME280;14654;48.898;8.308;2023-05-11T11:40:35;100077.72;;;20.71;74.88
15634;BME280;14654;48.898;8.308;2023-05-11T11:45:37;100080.25;;;20.73;75.07
15634;BME280;14654;48.898;8.308;2023-05-11T11:48:08;100074.56;;;20.64;73.79
15634;BME280;14654;48.898;8.308;2023-05-11T11:50:34;100073.50;;;20.51;74.14
15634;BME280;14654;48.898;8.308;2023-05-11T11:52:59;100072.56;;;20.52;73.86
15634;BME280;14654;48.898;8.308;2023-05-11T11:55:48;100071.06;;;20.48;73.55
15634;BME280;14654;48.898;8.308;2023-05-11T12:01:17;100066.03;;;20.27;72.57
15634;BME280;14654;48.898;8.308;2023-05-11T12:03:45;100064.94;;;20.31;72.81
15634;BME280;14654;48.898;8.308;2023-05-11T12:06:11;100071.13;;;20.46;72.82
15634;BME280;14654;48.898;8.308;2023-05-11T12:08:38;100065.50;;;20.70;72.55
15634;BME280;14654;48.898;8.308;2023-05-11T12:11:05;100055.03;;;20.68;72.31
15634;BME280;14654;48.898;8.308;2023-05-11T12:13:31;100055.59;;;20.75;71.51
15634;BME280;14654;48.898;8.308;2023-05-11T12:16:14;100051.31;;;20.56;70.90
15634;BME280;14654;48.898;8.308;2023-05-11T12:18:52;100050.19;;;20.45;71.47
15634;BME280;14654;48.898;8.308;2023-05-11T12:21:23;100058.34;;;20.56;71.06
15634;BME280;14654;48.898;8.308;2023-05-11T12:23:55;100059.88;;;20.60;71.22
15634;BME280;14654;48.898;8.308;2023-05-11T12:26:23;100043.44;;;20.73;71.38
15634;BME280;14654;48.898;8.308;2023-05-11T12:28:50;100045.47;;;20.99;71.45
15634;BME280;14654;48.898;8.308;2023-05-11T12:31:16;100047.47;;;21.26;71.28
15634;BME280;14654;48.898;8.308;2023-05-11T12:33:48;100040.97;;;21.48;70.51
15634;BME280;14654;48.898;8.308;2023-05-11T12:36:16;100040.34;;;21.59;70.17
15634;BME280;14654;48.898;8.308;2023-05-11T12:38:45;100041.13;;;21.61;69.51
15634;BME280;14654;48.898;8.308;2023-05-11T12:41:18;100026.81;;;21.65;69.68
15634;BME280;14654;48.898;8.308;2023-05-11T12:43:45;100037.47;;;21.78;69.72
15634;BME280;14654;48.898;8.308;2023-05-11T12:46:11;100031.84;;;21.70;69.36
15634;BME280;14654;48.898;8.308;2023-05-11T12:48:37;100034.81;;;21.64;69.55
15634;BME280;14654;48.898;8.308;2023-05-11T12:51:02;100029.19;;;21.70;69.86
15634;BME280;14654;48.898;8.308;2023-05-11T12:53:34;100025.41;;;21.74;69.52
15634;BME280;14654;48.898;8.308;2023-05-11T12:56:00;100021.47;;;21.67;69.04
15634;BME280;14654;48.898;8.308;2023-05-11T12:58:35;100023.88;;;21.55;68.85
15634;BME280;14654;48.898;8.308;2023-05-11T13:01:01;100016.13;;;21.38;68.81
15634;BME280;14654;48.898;8.308;2023-05-11T13:03:29;100016.28;;;21.35;69.04
15634;BME280;14654;48.898;8.308;2023-05-11T13:06:09;100009.59;;;21.29;68.86
15634;BME280;14654;48.898;8.308;2023-05-11T13:08:52;100009.91;;;21.08;68.38
15634;BME280;14654;48.898;8.308;2023-05-11T13:11:22;100002.88;;;20.93;68.95
15634;BME280;14654;48.898;8.308;2023-05-11T13:13:53;100001.47;;;20.87;69.49
15634;BME280;14654;48.898;8.308;2023-05-11T13:16:29;99990.56;;;21.09;69.38
15634;BME280;14654;48.898;8.308;2023-05-11T13:19:05;99995.38;;;21.17;68.20
15634;BME280;14654;48.898;8.308;2023-05-11T13:21:32;99980.94;;;21.24;67.85
15634;BME280;14654;48.898;8.308;2023-05-11T13:23:59;99984.06;;;21.31;67.66
15634;BME280;14654;48.898;8.308;2023-05-11T13:26:25;99987.94;;;21.40;67.74
15634;BME280;14654;48.898;8.308;2023-05-11T13:28:51;99980.09;;;21.38;67.59
15634;BME280;14654;48.898;8.308;2023-05-11T13:31:16;99973.16;;;21.37;67.60
15634;BME280;14654;48.898;8.308;2023-05-11T13:33:44;99977.28;;;21.41;67.26
15634;BME280;14654;48.898;8.308;2023-05-11T13:36:10;99975.59;;;21.40;67.60